Phoenix, Oregon
Current Conditions -  °F | °C
As of 1:53 AM on Saturday 25 Oct 2014 (Local Time) from KMFR Reporting Station
Clear Clear  
Wind Chill: 51°   Ceiling: Unl
Heat Index: 51°   Visibility: 10mi
Dew Point: 49°   Wind: 0mph
Humidity: 92%   Direction: NA
Pressure: 29.61"   Gusts: NA
Location:  42.28°N, 122.82°W
Report Text: KMFR 250853Z AUTO 00000KT 10SM CLR 11/09 A2961 RMK AO2 SLP021 T01060094 56020
Loading
Personal Weather Stations






























Interactive Weather Map New forecast layout! Learn more

10-Day Weather Forecast

Advertisements
Track Severe Weather on mobile